Hikarimaru No.17 — JD2956 — position and weather

sailwx.info

Track history (hours):
 
Tides and Currents Weather Stations Pressure Air Temp Water Temp Dewpoint Dewpoint Depression Visibility Wind Speed Wind Dir Waves Ship Positions

Hikarimaru No.17

Last reported at 2014-Oct-23 08:24 UTC. Time now 2014-Oct-23 13:08 UTC.
Position N 34°02' E 132°32'.

Length 105 m; draft 5.5 m.

Type: Tanker. MMSI: 431000984.

Date/timePositionNaut miles runAvg speedWind from/ knotsBaromVisibWave heightAir tempDewpointWater temp
2014-Oct-23 08:24N 34°02' E 132°32'10 1.3
2014-Oct-23 00:33N 34°09' E 132°23'6 0.3
2014-Oct-21 23:27N 34°12' E 132°16'3 2.8
2014-Oct-21 22:26N 34°10' E 132°19'0 0.0
2014-Oct-21 21:32N 34°10' E 132°19'0 0.0
2014-Oct-21 19:32N 34°10' E 132°19'0 0.0
2014-Oct-21 18:32N 34°10' E 132°19'0 0.0
2014-Oct-21 17:32N 34°10' E 132°19'7 6.8
2014-Oct-21 16:32N 34°06' E 132°25'1110.8
2014-Oct-21 15:34N 34°05' E 132°38'11913.2
2014-Oct-21 06:33N 34°37' E 134°57'9 8.8
2014-Oct-21 05:33N 34°30' E 135°04'1412.7
2014-Oct-21 04:28N 34°17' E 134°59'1412.6
2014-Oct-21 03:19N 34°03' E 135°00'  
2014-Oct-17 03:32N 34°04' E 135°00'1010.4
2014-Oct-17 02:33N 34°09' E 135°11'0 0.0
2014-Oct-17 01:33N 34°09' E 135°11'0 0.0
2014-Oct-17 00:33N 34°09' E 135°11'0 0.0
2014-Oct-16 23:33N 34°09' E 135°11'2 1.7
2014-Oct-16 22:31N 34°09' E 135°09'0 0.1
2014-Oct-16 21:31N 34°09' E 135°09'0 0.1
2014-Oct-16 20:31N 34°09' E 135°09'0 0.1
2014-Oct-16 19:31N 34°09' E 135°09'0 0.0
2014-Oct-16 18:31N 34°09' E 135°09'0 0.0
2014-Oct-16 17:31N 34°09' E 135°09'0 0.0
2014-Oct-16 16:31N 34°09' E 135°09'0 0.1
2014-Oct-16 15:31N 34°09' E 135°09'0 0.0
2014-Oct-16 14:31N 34°09' E 135°09'0 0.0
2014-Oct-16 13:31N 34°09' E 135°09'0 0.1
2014-Oct-16 12:31N 34°09' E 135°09'0 0.1
2014-Oct-16 11:31N 34°09' E 135°09'0 0.0
2014-Oct-16 10:31N 34°09' E 135°09'0 0.0
2014-Oct-16 09:31N 34°09' E 135°09'0 0.1
2014-Oct-16 08:31N 34°09' E 135°09'8 8.5
2014-Oct-16 07:33N 34°14' E 135°01'10 9.8
2014-Oct-16 06:32N 34°24' E 135°04'1313.0
2014-Oct-16 05:33N 34°31' E 135°17'7 1.3
2014-Oct-16 00:20N 34°33' E 135°25'5 6.2
2014-Oct-15 23:31N 34°33' E 135°19'0 0.0
2014-Oct-15 22:31N 34°33' E 135°19'0 0.0
2014-Oct-15 21:25N 34°33' E 135°19'0 0.0
2014-Oct-15 20:31N 34°33' E 135°19'0 0.0
2014-Oct-15 19:31N 34°33' E 135°19'0 0.0
2014-Oct-15 18:31N 34°33' E 135°19'0 0.0
2014-Oct-15 17:13N 34°33' E 135°19'0 0.0
2014-Oct-15 16:31N 34°33' E 135°19'0 0.0
2014-Oct-15 15:31N 34°33' E 135°19'0 0.0
2014-Oct-15 14:31N 34°33' E 135°19'0 0.0
2014-Oct-15 13:31N 34°33' E 135°19'6 6.6
2014-Oct-15 12:34N 34°34' E 135°11'1313.4
2014-Oct-15 11:34N 34°35' E 134°55'  
Track history (hours):
 
Tides and Currents Weather Stations Pressure Air Temp Water Temp Dewpoint Dewpoint Depression Visibility Wind Speed Wind Dir Waves Ship Positions

Hikarimaru No.17

Last reported at 2014-Oct-23 08:24 UTC. Time now 2014-Oct-23 13:08 UTC.
Position N 34°02' E 132°32'.

Length 105 m; draft 5.5 m.

Type: Tanker. MMSI: 431000984.

Date/timePositionNaut miles runAvg speedWind from/ knotsBaromVisibWave heightAir tempDewpointWater temp
2014-Oct-23 08:24N 34°02' E 132°32'10 1.3
2014-Oct-23 00:33N 34°09' E 132°23'6 0.3
2014-Oct-21 23:27N 34°12' E 132°16'3 2.8
2014-Oct-21 22:26N 34°10' E 132°19'0 0.0
2014-Oct-21 21:32N 34°10' E 132°19'0 0.0
2014-Oct-21 19:32N 34°10' E 132°19'0 0.0
2014-Oct-21 18:32N 34°10' E 132°19'0 0.0
2014-Oct-21 17:32N 34°10' E 132°19'7 6.8
2014-Oct-21 16:32N 34°06' E 132°25'1110.8
2014-Oct-21 15:34N 34°05' E 132°38'11913.2
2014-Oct-21 06:33N 34°37' E 134°57'9 8.8
2014-Oct-21 05:33N 34°30' E 135°04'1412.7
2014-Oct-21 04:28N 34°17' E 134°59'1412.6
2014-Oct-21 03:19N 34°03' E 135°00'  
2014-Oct-17 03:32N 34°04' E 135°00'1010.4
2014-Oct-17 02:33N 34°09' E 135°11'0 0.0
2014-Oct-17 01:33N 34°09' E 135°11'0 0.0
2014-Oct-17 00:33N 34°09' E 135°11'0 0.0
2014-Oct-16 23:33N 34°09' E 135°11'2 1.7
2014-Oct-16 22:31N 34°09' E 135°09'0 0.1
2014-Oct-16 21:31N 34°09' E 135°09'0 0.1
2014-Oct-16 20:31N 34°09' E 135°09'0 0.1
2014-Oct-16 19:31N 34°09' E 135°09'0 0.0
2014-Oct-16 18:31N 34°09' E 135°09'0 0.0
2014-Oct-16 17:31N 34°09' E 135°09'0 0.0
2014-Oct-16 16:31N 34°09' E 135°09'0 0.1
2014-Oct-16 15:31N 34°09' E 135°09'0 0.0
2014-Oct-16 14:31N 34°09' E 135°09'0 0.0
2014-Oct-16 13:31N 34°09' E 135°09'0 0.1
2014-Oct-16 12:31N 34°09' E 135°09'0 0.1
2014-Oct-16 11:31N 34°09' E 135°09'0 0.0
2014-Oct-16 10:31N 34°09' E 135°09'0 0.0
2014-Oct-16 09:31N 34°09' E 135°09'0 0.1
2014-Oct-16 08:31N 34°09' E 135°09'8 8.5
2014-Oct-16 07:33N 34°14' E 135°01'10 9.8
2014-Oct-16 06:32N 34°24' E 135°04'1313.0
2014-Oct-16 05:33N 34°31' E 135°17'7 1.3
2014-Oct-16 00:20N 34°33' E 135°25'5 6.2
2014-Oct-15 23:31N 34°33' E 135°19'0 0.0
2014-Oct-15 22:31N 34°33' E 135°19'0 0.0
2014-Oct-15 21:25N 34°33' E 135°19'0 0.0
2014-Oct-15 20:31N 34°33' E 135°19'0 0.0
2014-Oct-15 19:31N 34°33' E 135°19'0 0.0
2014-Oct-15 18:31N 34°33' E 135°19'0 0.0
2014-Oct-15 17:13N 34°33' E 135°19'0 0.0
2014-Oct-15 16:31N 34°33' E 135°19'0 0.0
2014-Oct-15 15:31N 34°33' E 135°19'0 0.0
2014-Oct-15 14:31N 34°33' E 135°19'0 0.0
2014-Oct-15 13:31N 34°33' E 135°19'6 6.6
2014-Oct-15 12:34N 34°34' E 135°11'1313.4
2014-Oct-15 11:34N 34°35' E 134°55'  

Dump ship's entire track history